Time;durP1;ratioP1;P1;durP2;ratioP2;P2;SDS_P1;SDS_P2;PMS_P1;PMS_P2;Temp;Humidity;BMP_temperature;BMP_pressure;BME280_temperature;BME280_humidity;BME280_pressure;Samples;Min_cycle;Max_cycle;Signal;HPM_P1;HPM_P2
2023/04/19 00:00:44;;;;;;;14.27;12.87;;;12.10;79.10;;;;;;5105644;28;20208;-89
2023/04/19 00:03:10;;;;;;;14.77;13.17;;;12.00;79.00;;;;;;5105672;28;20205;-92
2023/04/19 00:05:37;;;;;;;13.43;12.13;;;12.00;79.30;;;;;;5104717;28;20175;-89
2023/04/19 00:08:04;;;;;;;14.90;13.50;;;12.00;80.40;;;;;;5105465;28;20197;-87
2023/04/19 00:10:30;;;;;;;14.83;13.33;;;12.00;79.30;;;;;;5085289;28;20569;-88
2023/04/19 00:12:56;;;;;;;14.50;13.10;;;12.00;79.00;;;;;;5084925;28;20178;-88
2023/04/19 00:15:22;;;;;;;13.87;12.57;;;12.00;79.10;;;;;;5084507;28;20193;-89
2023/04/19 00:17:47;;;;;;;13.93;12.70;;;11.90;79.50;;;;;;5083088;28;20676;-89
2023/04/19 00:20:14;;;;;;;14.83;13.47;;;11.90;80.00;;;;;;5083648;28;20233;-88
2023/04/19 00:22:40;;;;;;;14.33;12.97;;;11.70;80.40;;;;;;5084639;28;20174;-88
2023/04/19 00:25:06;;;;;;;14.07;12.57;;;11.70;80.70;;;;;;5085432;28;20193;-89
2023/04/19 00:27:32;;;;;;;14.47;13.07;;;11.70;80.60;;;;;;5082929;28;20185;-88
2023/04/19 00:29:57;;;;;;;14.23;12.73;;;11.70;80.70;;;;;;5081618;28;20721;-92
2023/04/19 00:32:23;;;;;;;14.10;12.23;;;11.80;80.70;;;;;;5081398;28;20723;-89
2023/04/19 00:34:49;;;;;;;14.67;13.27;;;11.80;80.40;;;;;;5100573;28;20182;-89
2023/04/19 00:37:15;;;;;;;13.83;12.47;;;11.70;80.60;;;;;;5095494;28;20174;-89
2023/04/19 00:39:41;;;;;;;13.30;12.00;;;11.80;80.50;;;;;;5082420;28;20273;-90
2023/04/19 00:42:07;;;;;;;13.90;12.50;;;11.70;80.60;;;;;;5082515;28;20698;-89
2023/04/19 00:44:32;;;;;;;12.73;11.60;;;11.70;81.30;;;;;;5082014;28;20190;-89
2023/04/19 00:46:59;;;;;;;13.67;12.37;;;11.80;80.30;;;;;;5082714;28;20198;-89
2023/04/19 00:49:26;;;;;;;13.20;11.87;;;11.80;80.10;;;;;;5082049;28;20214;-88
2023/04/19 00:51:52;;;;;;;13.27;12.00;;;11.90;80.20;;;;;;5085964;28;20206;-88
2023/04/19 00:54:19;;;;;;;13.20;11.80;;;11.90;80.80;;;;;;5102486;28;20178;-89
2023/04/19 00:56:45;;;;;;;13.60;12.20;;;11.90;80.20;;;;;;5101744;28;20186;-90
2023/04/19 00:59:13;;;;;;;14.50;13.10;;;11.80;80.40;;;;;;5100996;28;20202;-89
2023/04/19 01:01:38;;;;;;;14.30;12.80;;;11.70;80.20;;;;;;5100501;28;20183;-87
2023/04/19 01:04:05;;;;;;;13.80;12.43;;;11.80;80.40;;;;;;5100289;28;20698;-88
2023/04/19 01:06:32;;;;;;;13.00;11.80;;;11.70;80.40;;;;;;5084514;28;20187;-90
2023/04/19 01:08:57;;;;;;;13.50;12.20;;;11.70;80.30;;;;;;5091907;28;20225;-90
2023/04/19 01:11:24;;;;;;;13.67;12.37;;;11.70;80.10;;;;;;5102115;28;20174;-88
2023/04/19 01:13:50;;;;;;;14.00;12.70;;;11.70;80.30;;;;;;5101037;28;20181;-87
2023/04/19 01:16:16;;;;;;;14.23;12.90;;;11.70;80.90;;;;;;5099820;28;20182;-88
2023/04/19 01:18:41;;;;;;;13.77;12.37;;;11.60;80.90;;;;;;5092402;28;20658;-88
2023/04/19 01:21:08;;;;;;;15.10;12.73;;;11.50;81.10;;;;;;5101882;28;20234;-89
2023/04/19 01:23:34;;;;;;;13.30;12.00;;;11.40;81.80;;;;;;5102196;28;20214;-89
2023/04/19 01:26:01;;;;;;;13.37;12.13;;;11.40;82.10;;;;;;5088887;28;20201;-90
2023/04/19 01:28:27;;;;;;;13.40;12.07;;;11.50;81.90;;;;;;5080805;28;20228;-90
2023/04/19 01:30:53;;;;;;;14.00;12.60;;;11.50;82.20;;;;;;5093130;28;20208;-91
2023/04/19 01:33:20;;;;;;;13.37;12.07;;;11.50;81.90;;;;;;5100393;28;20178;-90
2023/04/19 01:35:47;;;;;;;13.63;12.23;;;11.50;82.10;;;;;;5098969;28;20195;-88
2023/04/19 01:38:13;;;;;;;14.17;12.67;;;11.50;81.90;;;;;;5101773;28;20457;-87
2023/04/19 01:40:38;;;;;;;13.80;11.70;;;11.50;81.70;;;;;;5087634;28;20214;-89
2023/04/19 01:43:06;;;;;;;14.17;12.27;;;11.50;82.00;;;;;;5101090;28;20770;-91
2023/04/19 01:45:32;;;;;;;14.53;13.07;;;11.50;81.80;;;;;;5101804;28;20187;-89
2023/04/19 01:48:03;;;;;;;14.60;13.17;;;11.50;81.90;;;;;;5103670;28;20206;-90
2023/04/19 01:50:30;;;;;;;13.67;12.47;;;11.40;81.80;;;;;;5109364;28;20254;-89
2023/04/19 01:52:56;;;;;;;13.53;12.17;;;11.40;82.10;;;;;;5106233;28;20184;-92
2023/04/19 01:55:21;;;;;;;14.00;12.70;;;11.40;82.60;;;;;;5103959;28;20622;-88
2023/04/19 01:57:47;;;;;;;14.40;12.87;;;11.30;82.10;;;;;;5101021;28;20650;-89
2023/04/19 02:00:14;;;;;;;13.40;12.00;;;11.30;82.40;;;;;;5101154;28;20201;-89
2023/04/19 02:02:40;;;;;;;15.93;13.60;;;11.30;82.80;;;;;;5101231;28;20172;-88
2023/04/19 02:05:06;;;;;;;14.80;13.30;;;11.20;82.70;;;;;;5092987;28;20221;-89
2023/04/19 02:07:32;;;;;;;14.33;12.93;;;11.40;82.70;;;;;;5085001;28;20178;-91
2023/04/19 02:10:00;;;;;;;14.50;13.20;;;11.40;82.70;;;;;;5084764;28;20263;-91
2023/04/19 02:12:27;;;;;;;15.43;13.93;;;11.40;82.20;;;;;;5090662;28;20183;-89
2023/04/19 02:14:56;;;;;;;14.47;13.00;;;11.30;82.20;;;;;;5104936;28;20273;-89
2023/04/19 02:17:22;;;;;;;13.50;12.30;;;11.20;82.70;;;;;;5105732;28;20182;-89
2023/04/19 02:19:48;;;;;;;14.80;13.30;;;11.20;82.90;;;;;;5105338;28;20212;-88
2023/04/19 02:22:13;;;;;;;14.43;12.93;;;11.20;82.80;;;;;;5105659;28;20179;-89
2023/04/19 02:24:39;;;;;;;16.10;14.43;;;11.10;83.10;;;;;;5103509;28;20179;-90
2023/04/19 02:27:05;;;;;;;14.53;13.20;;;11.20;83.00;;;;;;5104359;28;20191;-88
2023/04/19 02:29:32;;;;;;;15.27;13.40;;;11.20;83.00;;;;;;5093372;28;20289;-89
2023/04/19 02:31:58;;;;;;;14.63;13.23;;;11.20;83.00;;;;;;5082626;28;20211;-91
2023/04/19 02:34:24;;;;;;;13.83;12.57;;;11.10;83.30;;;;;;5083720;28;20644;-90
2023/04/19 02:36:50;;;;;;;15.00;13.43;;;11.20;83.30;;;;;;5083184;28;20175;-89
2023/04/19 02:39:18;;;;;;;14.47;13.07;;;11.20;82.60;;;;;;5084418;28;20243;-87
2023/04/19 02:41:44;;;;;;;14.50;13.10;;;11.20;83.30;;;;;;5085235;28;20187;-89
2023/04/19 02:44:10;;;;;;;14.97;13.57;;;11.20;82.90;;;;;;5084629;28;20193;-88
2023/04/19 02:46:35;;;;;;;15.57;14.07;;;11.20;83.10;;;;;;5097257;28;20193;-89
2023/04/19 02:49:01;;;;;;;15.53;14.03;;;11.20;83.00;;;;;;5103868;28;20310;-89
2023/04/19 02:51:26;;;;;;;14.70;13.40;;;11.20;82.80;;;;;;5103898;28;20177;-89
2023/04/19 02:53:52;;;;;;;14.03;12.53;;;11.20;82.80;;;;;;5103870;28;20704;-89
2023/04/19 02:56:18;;;;;;;14.33;12.87;;;11.20;82.60;;;;;;5103185;28;20194;-91
2023/04/19 02:58:44;;;;;;;14.40;13.00;;;11.30;82.20;;;;;;5104356;28;20189;-89
2023/04/19 03:01:09;;;;;;;14.50;12.77;;;11.20;82.40;;;;;;5093027;28;20229;-88
2023/04/19 03:03:35;;;;;;;14.13;12.83;;;11.20;82.50;;;;;;5099433;28;20384;-88
2023/04/19 03:06:02;;;;;;;14.03;12.73;;;11.10;82.40;;;;;;5103567;28;20238;-89
2023/04/19 03:08:28;;;;;;;14.03;12.63;;;11.10;82.80;;;;;;5104646;28;20210;-90
2023/04/19 03:10:54;;;;;;;14.07;12.20;;;11.10;83.40;;;;;;5106005;28;20204;-89
2023/04/19 03:13:19;;;;;;;14.60;13.20;;;11.10;83.90;;;;;;5105205;28;20172;-89
2023/04/19 03:15:46;;;;;;;14.13;12.83;;;11.10;83.80;;;;;;5102943;28;20177;-89
2023/04/19 03:18:12;;;;;;;14.73;13.23;;;11.00;83.80;;;;;;5104680;28;20206;-89
2023/04/19 03:20:38;;;;;;;14.00;12.70;;;11.10;83.90;;;;;;5098620;28;20211;-89
2023/04/19 03:23:04;;;;;;;15.57;12.67;;;11.00;83.90;;;;;;5103778;28;20187;-88
2023/04/19 03:25:29;;;;;;;12.27;11.13;;;11.00;84.20;;;;;;5102340;28;20865;-88
2023/04/19 03:27:55;;;;;;;14.00;12.70;;;11.10;83.90;;;;;;5103763;28;20211;-88
2023/04/19 03:30:21;;;;;;;13.20;11.90;;;11.10;83.70;;;;;;5101265;28;20213;-89
2023/04/19 03:32:47;;;;;;;13.40;12.20;;;11.10;84.00;;;;;;5102111;28;20658;-89
2023/04/19 03:35:13;;;;;;;13.50;12.20;;;11.10;83.10;;;;;;5099257;28;20209;-89
2023/04/19 03:37:38;;;;;;;13.07;11.87;;;11.10;83.50;;;;;;5083623;28;20227;-88
2023/04/19 03:40:05;;;;;;;12.47;11.17;;;11.10;83.20;;;;;;5082317;28;20200;-90
2023/04/19 03:42:30;;;;;;;13.10;11.80;;;11.10;83.30;;;;;;5081354;28;20181;-88
2023/04/19 03:44:57;;;;;;;13.93;12.07;;;11.00;83.50;;;;;;5083019;28;20193;-90
2023/04/19 03:47:23;;;;;;;13.60;12.30;;;11.10;83.50;;;;;;5082393;28;20186;-89
2023/04/19 03:49:48;;;;;;;12.37;11.17;;;11.10;83.00;;;;;;5095092;28;20224;-89
2023/04/19 03:52:14;;;;;;;13.00;11.40;;;11.10;83.00;;;;;;5100455;28;20253;-92
2023/04/19 03:54:39;;;;;;;13.10;11.90;;;11.10;83.20;;;;;;5105189;28;20224;-89
2023/04/19 03:57:05;;;;;;;12.77;11.57;;;11.10;82.70;;;;;;5102399;28;20263;-88
2023/04/19 03:59:31;;;;;;;12.63;11.43;;;11.10;82.90;;;;;;5102467;28;20205;-88
2023/04/19 04:01:56;;;;;;;12.87;11.77;;;11.10;82.70;;;;;;5084668;28;20190;-89
2023/04/19 04:04:22;;;;;;;13.40;12.20;;;11.10;82.70;;;;;;5082816;28;20247;-89
2023/04/19 04:06:48;;;;;;;12.53;11.33;;;11.10;82.80;;;;;;5083677;28;20202;-88
2023/04/19 04:09:14;;;;;;;15.37;13.07;;;11.10;82.80;;;;;;5094444;28;20214;-88
2023/04/19 04:11:39;;;;;;;12.77;11.47;;;11.10;82.70;;;;;;5103975;28;20180;-91
2023/04/19 04:14:05;;;;;;;12.67;11.57;;;11.10;82.80;;;;;;5082347;28;20197;-89
2023/04/19 04:16:31;;;;;;;12.57;11.30;;;11.00;82.60;;;;;;5093772;28;20176;-90
2023/04/19 04:18:57;;;;;;;14.20;12.80;;;11.00;82.90;;;;;;5098284;28;20633;-88
2023/04/19 04:21:23;;;;;;;13.47;12.17;;;11.00;83.10;;;;;;5100340;28;20183;-88
2023/04/19 04:23:49;;;;;;;12.00;11.00;;;11.00;83.30;;;;;;5082249;28;20277;-87
2023/04/19 04:26:15;;;;;;;14.60;13.20;;;11.00;83.20;;;;;;5080787;28;20213;-84
2023/04/19 04:28:41;;;;;;;16.50;14.90;;;11.00;82.90;;;;;;5093971;28;20204;-92
2023/04/19 04:31:06;;;;;;;16.83;15.30;;;11.00;82.90;;;;;;5101178;28;20445;-90
2023/04/19 04:33:32;;;;;;;13.97;12.57;;;11.00;82.90;;;;;;5097590;28;20174;-91
2023/04/19 04:35:58;;;;;;;13.33;12.13;;;11.10;82.90;;;;;;5102148;28;20202;-90
2023/04/19 04:38:24;;;;;;;12.73;11.53;;;11.10;82.60;;;;;;5103051;28;20174;-90
2023/04/19 04:40:54;;;;;;;12.73;11.53;;;11.00;82.50;;;;;;5104576;28;20207;-89
2023/04/19 04:43:24;;;;;;;12.23;11.00;;;11.00;82.50;;;;;;5104922;28;20215;-90
2023/04/19 04:45:50;;;;;;;13.00;11.80;;;10.90;83.00;;;;;;5102946;28;20180;-93
2023/04/19 04:48:16;;;;;;;13.47;12.27;;;10.90;83.50;;;;;;5103548;28;20240;-90
2023/04/19 04:50:43;;;;;;;12.17;10.97;;;11.00;83.30;;;;;;5103514;28;20700;-90
2023/04/19 04:53:10;;;;;;;12.40;11.20;;;10.90;82.70;;;;;;5104107;28;20373;-89
2023/04/19 04:55:36;;;;;;;13.40;12.00;;;10.90;83.90;;;;;;5102425;28;20683;-89
2023/04/19 04:58:04;;;;;;;11.70;10.60;;;11.00;82.90;;;;;;5101575;28;20181;-92
2023/04/19 05:00:30;;;;;;;12.23;11.03;;;11.00;82.70;;;;;;5103330;28;20239;-91
2023/04/19 05:02:56;;;;;;;12.17;10.90;;;11.00;82.70;;;;;;5103750;28;20246;-91
2023/04/19 05:05:22;;;;;;;12.27;11.07;;;11.00;82.30;;;;;;5102970;28;20194;-88
2023/04/19 05:07:48;;;;;;;12.37;11.13;;;11.10;82.50;;;;;;5101928;28;20209;-89
2023/04/19 05:10:13;;;;;;;14.90;13.50;;;11.00;82.60;;;;;;5104239;28;20558;-90
2023/04/19 05:12:39;;;;;;;13.30;12.00;;;11.00;83.00;;;;;;5100871;28;20258;-91
2023/04/19 05:15:06;;;;;;;12.23;10.83;;;11.10;82.60;;;;;;5101254;28;20218;-89
2023/04/19 05:17:31;;;;;;;10.70;9.70;;;11.00;82.30;;;;;;5101551;28;20173;-90
2023/04/19 05:19:57;;;;;;;12.40;11.27;;;11.00;82.80;;;;;;5100107;28;20215;-91
2023/04/19 05:22:23;;;;;;;12.10;11.00;;;11.00;81.90;;;;;;5082909;28;20199;-91
2023/04/19 05:24:49;;;;;;;12.37;11.13;;;11.00;82.50;;;;;;5079562;28;20181;-92
2023/04/19 05:27:15;;;;;;;11.27;10.27;;;11.00;82.60;;;;;;5081379;28;20182;-91
2023/04/19 05:29:40;;;;;;;11.83;10.73;;;11.10;82.00;;;;;;5083871;28;20238;-89
2023/04/19 05:32:06;;;;;;;11.53;10.40;;;11.10;81.70;;;;;;5102412;28;20193;-90
2023/04/19 05:34:32;;;;;;;10.97;10.00;;;11.10;81.00;;;;;;5083154;28;20176;-90
2023/04/19 05:36:58;;;;;;;11.90;10.80;;;11.10;81.90;;;;;;5085892;28;20190;-90
2023/04/19 05:39:24;;;;;;;12.47;11.27;;;11.10;81.40;;;;;;5114220;28;20223;-89
2023/04/19 05:41:50;;;;;;;12.73;11.63;;;11.10;81.60;;;;;;5107321;28;20196;-92
2023/04/19 05:44:16;;;;;;;12.03;10.90;;;11.20;80.90;;;;;;5102702;28;20197;-91
2023/04/19 05:46:41;;;;;;;11.50;10.30;;;11.20;80.70;;;;;;5109432;28;20197;-92
2023/04/19 05:49:07;;;;;;;11.43;10.43;;;11.30;80.70;;;;;;5105768;28;20245;-90
2023/04/19 05:51:32;;;;;;;11.77;10.67;;;11.20;81.20;;;;;;5118662;28;20178;-91
2023/04/19 05:53:59;;;;;;;12.90;11.60;;;11.20;80.40;;;;;;5114113;28;20184;-90
2023/04/19 05:56:25;;;;;;;11.57;10.57;;;11.20;80.30;;;;;;5101455;28;20248;-89
2023/04/19 05:58:51;;;;;;;13.03;11.73;;;11.30;80.40;;;;;;5110912;28;20583;-90
2023/04/19 06:01:17;;;;;;;12.23;11.17;;;11.30;80.20;;;;;;5101789;28;20185;-92
2023/04/19 06:03:42;;;;;;;12.90;11.60;;;11.40;79.20;;;;;;5096804;28;20434;-91
2023/04/19 06:06:08;;;;;;;11.47;10.47;;;11.30;80.00;;;;;;5123810;28;20189;-92
2023/04/19 06:08:34;;;;;;;11.47;10.37;;;11.30;80.20;;;;;;5122866;28;20209;-90
2023/04/19 06:11:00;;;;;;;12.20;11.07;;;11.50;80.10;;;;;;5113813;28;20208;-90
2023/04/19 06:13:26;;;;;;;14.77;12.77;;;11.50;79.40;;;;;;5113716;28;20594;-90
2023/04/19 06:15:51;;;;;;;12.40;11.30;;;11.50;79.90;;;;;;5103007;28;20177;-89
2023/04/19 06:18:17;;;;;;;12.73;11.53;;;11.50;78.70;;;;;;5111927;28;20218;-90
2023/04/19 06:20:43;;;;;;;12.60;11.33;;;11.50;78.70;;;;;;5108913;28;20214;-90
2023/04/19 06:23:08;;;;;;;11.50;10.50;;;11.50;78.90;;;;;;5117498;28;20200;-89
2023/04/19 06:25:34;;;;;;;12.10;11.00;;;11.60;78.90;;;;;;5125683;28;20215;-91
2023/04/19 06:28:00;;;;;;;12.13;11.03;;;11.60;78.30;;;;;;5114617;27;20194;-91
2023/04/19 06:30:26;;;;;;;11.50;10.40;;;11.60;78.30;;;;;;5111017;28;20260;-90
2023/04/19 06:32:52;;;;;;;11.17;10.03;;;11.60;78.00;;;;;;5105542;28;20192;-90
2023/04/19 06:35:18;;;;;;;12.53;11.43;;;11.70;78.40;;;;;;5091977;28;20179;-89
2023/04/19 06:37:44;;;;;;;12.17;11.00;;;11.80;77.80;;;;;;5098803;28;20403;-91
2023/04/19 06:40:10;;;;;;;11.90;10.90;;;11.80;77.70;;;;;;5102343;28;20221;-90
2023/04/19 06:42:36;;;;;;;12.73;11.47;;;11.70;77.80;;;;;;5101800;28;20181;-92
2023/04/19 06:45:02;;;;;;;11.57;10.40;;;11.90;77.80;;;;;;5104614;28;20341;-88
2023/04/19 06:47:29;;;;;;;12.87;10.30;;;11.90;76.80;;;;;;5106429;28;20182;-88
2023/04/19 06:49:55;;;;;;;12.20;11.10;;;12.00;77.00;;;;;;5101697;28;20214;-88
2023/04/19 06:52:21;;;;;;;11.40;10.30;;;12.20;75.30;;;;;;5087752;28;20218;-87
2023/04/19 06:54:48;;;;;;;11.20;10.10;;;12.20;75.00;;;;;;5083559;28;20282;-88
2023/04/19 06:57:15;;;;;;;11.87;10.77;;;12.10;74.60;;;;;;5104805;28;20186;-86
2023/04/19 06:59:40;;;;;;;10.73;9.77;;;12.20;75.70;;;;;;5104152;28;20209;-88
2023/04/19 07:02:06;;;;;;;11.37;10.27;;;12.20;74.50;;;;;;5087352;28;20202;-84
2023/04/19 07:04:32;;;;;;;11.70;10.60;;;12.30;75.30;;;;;;5104054;28;20186;-82
2023/04/19 07:06:59;;;;;;;10.57;9.47;;;12.20;74.60;;;;;;5103572;28;20181;-85
2023/04/19 07:09:25;;;;;;;11.67;10.57;;;12.20;74.60;;;;;;5100145;28;20210;-85
2023/04/19 07:11:51;;;;;;;11.60;10.40;;;12.10;74.50;;;;;;5084668;28;20178;-86
2023/04/19 07:14:18;;;;;;;11.00;9.83;;;12.10;74.60;;;;;;5095282;28;20205;-86
2023/04/19 07:16:44;;;;;;;11.67;10.47;;;12.10;75.00;;;;;;5104379;28;20189;-84
2023/04/19 07:19:10;;;;;;;11.87;10.40;;;12.10;73.70;;;;;;5096054;28;20214;-86
2023/04/19 07:21:37;;;;;;;10.70;9.77;;;12.10;74.80;;;;;;5088210;28;20186;-86
2023/04/19 07:24:03;;;;;;;11.03;10.10;;;12.10;74.80;;;;;;5108688;28;20236;-83
2023/04/19 07:26:29;;;;;;;11.07;10.07;;;12.20;73.60;;;;;;5111539;28;20203;-84
2023/04/19 07:28:55;;;;;;;10.50;9.60;;;12.30;74.10;;;;;;5106745;28;20202;-86
2023/04/19 07:31:23;;;;;;;11.00;10.00;;;12.30;73.80;;;;;;5106646;28;20181;-86
2023/04/19 07:33:49;;;;;;;12.27;11.17;;;12.30;73.10;;;;;;5103418;28;20179;-86
2023/04/19 07:36:15;;;;;;;12.00;10.70;;;12.40;72.70;;;;;;5086229;28;20309;-85
2023/04/19 07:38:41;;;;;;;10.80;9.90;;;12.50;73.10;;;;;;5103507;28;20182;-86
2023/04/19 07:41:06;;;;;;;14.97;11.10;;;12.60;72.50;;;;;;5103761;28;20198;-86
2023/04/19 07:43:32;;;;;;;10.57;9.53;;;12.60;72.30;;;;;;5085899;28;20279;-87
2023/04/19 07:45:58;;;;;;;10.87;9.97;;;12.60;72.10;;;;;;5081371;28;20553;-87
2023/04/19 07:48:24;;;;;;;10.70;9.70;;;12.70;72.60;;;;;;5082016;28;20206;-90
2023/04/19 07:50:49;;;;;;;11.13;10.07;;;12.80;72.20;;;;;;5093115;28;20199;-89
2023/04/19 07:53:15;;;;;;;10.50;9.53;;;12.90;72.40;;;;;;5101735;28;20163;-85
2023/04/19 07:55:41;;;;;;;9.37;8.60;;;13.00;72.70;;;;;;5099939;28;20203;-88
2023/04/19 07:58:06;;;;;;;10.47;9.37;;;13.20;71.60;;;;;;5105359;28;20187;-88
2023/04/19 08:00:35;;;;;;;10.50;9.57;;;13.20;70.70;;;;;;5104066;28;20206;-88
2023/04/19 08:03:01;;;;;;;11.43;10.40;;;13.30;70.30;;;;;;5081938;28;20206;-87
2023/04/19 08:05:27;;;;;;;10.90;9.80;;;13.30;69.40;;;;;;5083235;28;20236;-88
2023/04/19 08:07:52;;;;;;;10.27;9.23;;;13.40;70.30;;;;;;5090748;28;20211;-89
2023/04/19 08:10:19;;;;;;;14.83;10.97;;;13.50;68.40;;;;;;5097450;28;20197;-87
2023/04/19 08:12:45;;;;;;;10.53;9.53;;;13.50;68.40;;;;;;5080913;28;20163;-79
2023/04/19 08:15:11;;;;;;;11.00;9.93;;;13.40;68.70;;;;;;5082371;28;20258;-86
2023/04/19 08:17:36;;;;;;;9.90;9.00;;;13.60;68.30;;;;;;5099287;28;20179;-88
2023/04/19 08:20:02;;;;;;;11.00;9.90;;;13.50;68.30;;;;;;5098693;28;20206;-84
2023/04/19 08:22:28;;;;;;;10.53;9.57;;;13.40;68.10;;;;;;5081427;28;20212;-85
2023/04/19 08:24:54;;;;;;;11.67;10.57;;;13.50;68.20;;;;;;5082158;28;20254;-86
2023/04/19 08:27:20;;;;;;;10.57;9.57;;;13.60;68.60;;;;;;5090517;28;20191;-84
2023/04/19 08:29:46;;;;;;;10.13;8.90;;;13.80;68.30;;;;;;5089165;28;20234;-84
2023/04/19 08:32:12;;;;;;;10.90;9.90;;;13.90;68.40;;;;;;5097203;28;20178;-86
2023/04/19 08:34:39;;;;;;;10.63;9.67;;;14.30;65.10;;;;;;5089931;28;20205;-83
2023/04/19 08:37:08;;;;;;;10.37;9.40;;;14.40;64.10;;;;;;5098132;28;20228;-87
2023/04/19 08:39:34;;;;;;;10.10;9.30;;;14.40;64.30;;;;;;5106198;28;20199;-87
2023/04/19 08:42:08;;;;;;;10.03;9.13;;;14.40;64.90;;;;;;5103772;28;20183;-86
2023/04/19 08:44:35;;;;;;;11.13;10.03;;;14.50;64.80;;;;;;5103843;28;20251;-85
2023/04/19 08:47:01;;;;;;;11.70;10.07;;;14.60;63.50;;;;;;5105136;28;20175;-87
2023/04/19 08:49:30;;;;;;;10.60;9.60;;;14.50;63.80;;;;;;5102339;28;20223;-89
2023/04/19 08:52:00;;;;;;;10.17;9.17;;;14.50;63.20;;;;;;5096341;28;21206;-87
2023/04/19 08:54:28;;;;;;;10.33;9.37;;;14.50;64.20;;;;;;5091301;28;20199;-86
2023/04/19 08:56:57;;;;;;;9.20;8.30;;;14.60;63.40;;;;;;5079064;28;20163;-87
2023/04/19 08:59:23;;;;;;;9.63;8.80;;;14.60;62.50;;;;;;5079390;28;20273;-85
2023/04/19 09:01:49;;;;;;;10.27;9.13;;;14.80;62.50;;;;;;5095869;28;20271;-87
2023/04/19 09:04:14;;;;;;;9.90;9.00;;;15.00;62.70;;;;;;5099259;28;20182;-86
2023/04/19 09:06:40;;;;;;;9.33;8.40;;;15.20;59.30;;;;;;5090676;28;20206;-85
2023/04/19 09:09:35;;;;;;;10.83;9.90;;;15.10;59.30;;;;;;5079353;28;20214;-85
2023/04/19 09:12:01;;;;;;;10.13;9.23;;;14.80;59.90;;;;;;5074500;28;20192;-84
2023/04/19 09:14:27;;;;;;;11.53;9.83;;;14.50;61.60;;;;;;5087956;28;20844;-87
2023/04/19 09:17:09;;;;;;;8.83;8.13;;;14.60;61.40;;;;;;5099437;28;20659;-85
2023/04/19 09:19:48;;;;;;;10.63;8.97;;;14.60;62.20;;;;;;5101461;28;20216;-85
2023/04/19 09:22:14;;;;;;;9.27;8.47;;;14.50;62.90;;;;;;5121710;28;20260;-86
2023/04/19 09:24:40;;;;;;;10.10;9.23;;;14.40;63.20;;;;;;5120161;28;20186;-87
2023/04/19 09:27:05;;;;;;;10.10;9.07;;;14.30;63.60;;;;;;5119975;28;20732;-86
2023/04/19 09:29:31;;;;;;;9.73;8.93;;;14.40;63.50;;;;;;5104881;28;20719;-87
2023/04/19 09:31:58;;;;;;;9.47;8.67;;;14.50;63.60;;;;;;5097049;28;20180;-86
2023/04/19 09:34:24;;;;;;;10.07;9.07;;;14.60;63.10;;;;;;5101979;28;20197;-86
2023/04/19 09:36:49;;;;;;;10.67;9.67;;;14.50;62.90;;;;;;5101194;28;20173;-87
2023/04/19 09:39:31;;;;;;;10.47;9.47;;;14.40;63.10;;;;;;5100964;28;20209;-86
2023/04/19 09:41:57;;;;;;;10.20;9.33;;;14.30;63.20;;;;;;5101374;28;20193;-86
2023/04/19 09:44:23;;;;;;;11.17;10.07;;;14.10;64.60;;;;;;5100442;28;20184;-87
2023/04/19 09:46:51;;;;;;;10.27;9.33;;;14.00;65.70;;;;;;5101449;28;20203;-88
2023/04/19 09:49:24;;;;;;;9.77;8.97;;;13.90;66.40;;;;;;5101937;28;20202;-87
2023/04/19 09:51:54;;;;;;;10.73;9.70;;;14.00;67.10;;;;;;5102137;28;20164;-87
2023/04/19 09:54:22;;;;;;;10.17;9.17;;;14.00;67.50;;;;;;5102710;28;20171;-86
2023/04/19 09:56:48;;;;;;;10.67;9.77;;;14.00;67.50;;;;;;5102087;28;20173;-86
2023/04/19 09:59:14;;;;;;;10.43;9.53;;;14.10;67.50;;;;;;5102158;28;20199;-86
2023/04/19 10:01:44;;;;;;;20.23;10.43;;;14.30;67.70;;;;;;5102968;28;20180;-86
2023/04/19 10:04:11;;;;;;;10.93;10.00;;;14.50;65.50;;;;;;5102643;28;20424;-87
2023/04/19 10:06:40;;;;;;;10.10;9.27;;;14.40;65.50;;;;;;5103071;28;20221;-86
2023/04/19 10:09:07;;;;;;;10.80;9.87;;;14.40;66.00;;;;;;5100434;28;20645;-87
2023/04/19 10:11:39;;;;;;;12.27;9.60;;;14.40;65.50;;;;;;5102692;28;20213;-87
2023/04/19 10:14:09;;;;;;;10.53;9.53;;;14.30;66.20;;;;;;5101406;28;20175;-87
2023/04/19 10:16:37;;;;;;;11.27;10.17;;;14.40;65.60;;;;;;5100981;28;20172;-87
2023/04/19 10:19:14;;;;;;;9.80;9.00;;;14.50;64.50;;;;;;5103795;28;20171;-85
2023/04/19 10:21:46;;;;;;;10.17;9.27;;;14.50;64.30;;;;;;5103484;28;20185;-85
2023/04/19 10:24:13;;;;;;;9.10;8.30;;;14.40;65.10;;;;;;5102214;28;20260;-86
2023/04/19 10:27:11;;;;;;;9.37;8.57;;;14.50;65.10;;;;;;5106956;28;20267;-86
2023/04/19 10:29:59;;;;;;;9.50;8.63;;;14.50;64.60;;;;;;5104331;28;20221;-88
2023/04/19 10:32:42;;;;;;;9.33;8.50;;;14.60;63.60;;;;;;5106625;28;20188;-87
2023/04/19 10:35:17;;;;;;;9.40;8.60;;;14.80;63.10;;;;;;5105871;28;20179;-87
2023/04/19 10:38:05;;;;;;;9.77;8.87;;;15.00;63.10;;;;;;5106417;28;20220;-86
2023/04/19 10:40:50;;;;;;;9.50;8.53;;;15.30;61.60;;;;;;5105251;28;20282;-88
2023/04/19 10:43:16;;;;;;;9.53;8.60;;;15.50;61.40;;;;;;5111980;28;20179;-87
2023/04/19 10:45:42;;;;;;;10.13;9.33;;;15.30;61.00;;;;;;5107464;28;20185;-86
2023/04/19 10:48:34;;;;;;;10.03;9.13;;;15.20;62.00;;;;;;5125895;28;20317;-88
2023/04/19 10:51:19;;;;;;;9.87;8.87;;;15.40;62.60;;;;;;5127630;28;20243;-83
2023/04/19 10:53:53;;;;;;;10.83;9.93;;;15.40;61.70;;;;;;5126247;28;20663;-89
2023/04/19 10:56:40;;;;;;;9.77;8.93;;;15.20;61.60;;;;;;5128247;28;20236;-89
2023/04/19 10:59:11;;;;;;;9.00;8.13;;;15.30;61.80;;;;;;5126408;28;20162;-87
2023/04/19 11:01:55;;;;;;;10.47;9.57;;;15.30;62.10;;;;;;5107863;28;20165;-88
2023/04/19 11:04:31;;;;;;;13.70;8.87;;;15.40;61.80;;;;;;5121281;28;20163;-87
2023/04/19 11:07:04;;;;;;;9.87;8.90;;;15.60;62.10;;;;;;5128813;28;20244;-85
2023/04/19 11:09:38;;;;;;;9.20;8.40;;;15.80;61.40;;;;;;5128566;28;20202;-85
2023/04/19 11:12:10;;;;;;;9.93;9.03;;;15.60;61.40;;;;;;5129147;28;20328;-84
2023/04/19 11:14:47;;;;;;;9.20;8.40;;;15.70;61.90;;;;;;5128243;28;20189;-85
2023/04/19 11:17:18;;;;;;;9.70;8.80;;;15.70;61.70;;;;;;5128759;28;20154;-87
2023/04/19 11:19:52;;;;;;;9.77;8.80;;;15.70;62.10;;;;;;5129139;28;20197;-84
2023/04/19 11:22:17;;;;;;;9.90;9.10;;;15.70;61.90;;;;;;5117250;28;20194;-83
2023/04/19 11:24:47;;;;;;;9.40;8.60;;;15.80;60.50;;;;;;5108087;28;20189;-90
2023/04/19 11:27:12;;;;;;;9.07;8.27;;;15.80;60.60;;;;;;5106937;28;20209;-88
2023/04/19 11:29:38;;;;;;;9.73;8.90;;;15.80;61.30;;;;;;5106198;28;20218;-86
2023/04/19 11:32:04;;;;;;;12.57;8.67;;;15.70;61.80;;;;;;5105919;28;20190;-84
2023/04/19 11:34:35;;;;;;;9.60;8.60;;;15.70;61.90;;;;;;5107388;28;20221;-87
2023/04/19 11:37:01;;;;;;;9.00;8.20;;;15.60;62.70;;;;;;5106095;28;20166;-87
2023/04/19 11:39:27;;;;;;;9.63;8.83;;;15.40;62.40;;;;;;5106214;28;20214;-85
2023/04/19 11:41:52;;;;;;;9.73;8.93;;;15.40;63.30;;;;;;5110304;28;20183;-88
2023/04/19 11:44:19;;;;;;;9.87;8.97;;;15.30;62.90;;;;;;5110697;28;20191;-87
2023/04/19 11:46:58;;;;;;;9.83;8.83;;;15.30;63.00;;;;;;5110279;28;20221;-85
2023/04/19 11:49:32;;;;;;;9.73;8.83;;;15.20;63.80;;;;;;5113885;28;20234;-88
2023/04/19 11:51:59;;;;;;;11.53;8.90;;;15.10;64.30;;;;;;5106396;28;20198;-86
2023/04/19 11:54:26;;;;;;;11.47;7.77;;;15.10;64.30;;;;;;5113260;28;20176;-86
2023/04/19 11:57:05;;;;;;;9.13;8.17;;;15.00;64.10;;;;;;5103222;28;20178;-86
2023/04/19 11:59:32;;;;;;;8.63;7.70;;;14.90;65.00;;;;;;5100658;28;20203;-86
2023/04/19 12:02:17;;;;;;;9.10;8.17;;;14.90;65.50;;;;;;5099151;28;20287;-87
2023/04/19 12:04:42;;;;;;;10.40;8.97;;;14.90;65.80;;;;;;5099462;28;20178;-86
2023/04/19 12:07:09;;;;;;;8.77;8.03;;;14.80;65.80;;;;;;5096393;28;20186;-87
2023/04/19 12:09:35;;;;;;;8.47;7.57;;;14.70;66.70;;;;;;5101299;28;20238;-84
2023/04/19 12:12:01;;;;;;;8.40;7.67;;;14.60;67.90;;;;;;5095125;28;20279;-87
2023/04/19 12:14:28;;;;;;;8.97;8.27;;;14.60;67.90;;;;;;5087992;28;20184;-88
2023/04/19 12:17:11;;;;;;;8.87;7.97;;;14.40;69.20;;;;;;5092485;28;20193;-87
2023/04/19 12:19:45;;;;;;;9.83;8.40;;;14.40;69.50;;;;;;5093517;28;20214;-90
2023/04/19 12:22:12;;;;;;;9.40;8.53;;;14.40;71.00;;;;;;5091431;28;20977;-88
2023/04/19 12:24:39;;;;;;;9.33;8.63;;;14.30;73.40;;;;;;5093374;28;20190;-86
2023/04/19 12:27:04;;;;;;;10.23;8.83;;;14.20;74.60;;;;;;5093511;28;20202;-86
2023/04/19 12:29:30;;;;;;;10.37;9.37;;;14.20;75.50;;;;;;5090070;28;20222;-88
2023/04/19 12:31:56;;;;;;;9.30;8.50;;;14.20;77.20;;;;;;5091767;28;20186;-89
2023/04/19 12:34:21;;;;;;;11.47;9.93;;;14.10;78.90;;;;;;5089342;28;20186;-89